Black River Falls, WI

10:47 AM CDT on July 24, 2016 (GMT -0500)
Black River Falls Area | | Change Station

Elev 837 ft 44.25 °N, 90.86 °W | Updated 12 minutes ago

Mostly Cloudy
Mostly Cloudy
83 °F
Feels Like 90 °F
N
6
Wind Variable Wind from WNW

Today
High -- | Low -- °F
--% Chance of Precip.
Yesterday
High -- | Low -- °F
Precip. -- in
Pressure 29.80 in
Visibility 10.0 miles
Clouds Scattered Clouds 1400 ft
Mostly Cloudy 7000 ft
Heat Index 90 °F
Dew Point 74 °F
Humidity 75%
Rainfall 0.05 in
Snow Depth Not available.
5:42 AM 8:36 PM
Waning Gibbous, 75% visible
METAR KBCK 241535Z AUTO 29005KT 10SM SCT014 BKN070 29/24 A2980 RMK AO2 T02850236
Pressure 29.80 in
Visibility 10.0 miles
Clouds Scattered Clouds 1400 ft
Mostly Cloudy 7000 ft
Heat Index 90 °F
Dew Point 74 °F
Humidity 75%
Rainfall 0.05 in
Snow Depth Not available.
5:42 AM 8:36 PM
Waning Gibbous, 75% visible
METAR KBCK 241535Z AUTO 29005KT 10SM SCT014 BKN070 29/24 A2980 RMK AO2 T02850236

10-Day Weather Forecast

Almanac

Astronomy

Jul. 24, 2016 Rise Set
Actual Time
Civil Twilight
Nautical Twilight
Astronomical Twilight
Moon
Length of Visible Light
Length of Day
Tomorrow will be .
, % of the Moon is Illuminated

Today's Extremes

State Highs State Lows

Community

WunderPhotos

Upload Photos

1,927,092 photos uploaded!

WunderBlog® & News

Nearby

Air Quality

  Air Quality AQ Index Pollutant
Not available.

Snow Depth

Station Depth Elevation

Earthquake Activity

City Distance Mag. Time & Date
Minimum magnitude displayed is 2.5.

Coastal Water Temperatures

Place Temperature

Stations

Nearby Weather Stations

Station Location Temp. Windchill Dew Point Humidity Wind Precip. Elev Updated Type
                   

Watches & Warnings

There are currently no watches in effect.